Weather History for KCOD - November, 2010

Change the Weather History Date:

Thursday, November 18, 2010

  Actual Average Record
Temperature  
Mean Temperature 44 °F -  
Max Temperature 55 °F 45 °F 69 °F (1949)
Min Temperature 33 °F 23 °F 0 °F (1937)
Degree Days  
Heating Degree Days 21    
Moisture  
Dew Point 15 °F    
Average Humidity 30    
Maximum Humidity 56    
Minimum Humidity 18    
Precipitation  
Precipitation 0.00 in - - ()
Sea Level Pressure  
Sea Level Pressure 29.75 in    
Wind  
Wind Speed 13 mph (SSW)    
Max Wind Speed 32 mph    
Max Gust Speed 40 mph    
Visibility 10 miles    
Events      
Averages and records for this station are not official NWS values.
T = Trace of Precipitation, MM = Missing Value Source: NWS Daily Summary

Daily Weather History Graph

Daily Weather History Graph

Search for Another Location

Airport or City:

Trip Planner

Search our weather history database for the weather conditions in past years. The results will help you decide how hot, cold, wet, or windy it might be!

Date:

Astronomy

Nov. 18, 2010 Rise Set
Actual Time 7:16 AM MST 4:45 PM MST
Civil Twilight 6:44 AM MST 5:17 PM MST
Nautical Twilight 6:09 AM MST 5:52 PM MST
Astronomical Twilight 5:34 AM MST 6:27 PM MST
Moon 2:50 PM MST (11/18) 4:12 AM MST (11/18)
Length of Visible Light 10h 32m
Length of Day
9h 29m
Waxing Gibbous, 91% of the Moon is Illuminated
Nov 18
Waxing Gibbous
Nov 21
Full
Nov 28
Last Quarter
Dec 5
New
Dec 13
First Quarter

Hourly Weather History & Observations

Time (MST) Temp. Windchill Dew Point Humidity Pressure Visibility Wind Dir Wind Speed Gust Speed Precip Events Conditions
12:15 AM 35.6 °F 25.9 °F 19.4 °F 52% 29.92 in 10.0 mi SSE 16.1 mph 20.7 mph N/A   Overcast
12:35 AM 33.8 °F 25.8 °F 19.4 °F 56% 29.92 in 10.0 mi SSE 10.4 mph - N/A   Mostly Cloudy
12:55 AM 33.8 °F 24.8 °F 19.4 °F 56% 29.90 in 10.0 mi SSE 12.7 mph 19.6 mph N/A   Partly Cloudy
1:15 AM 39.2 °F 30.8 °F 17.6 °F 42% 29.89 in 10.0 mi South 15.0 mph 19.6 mph N/A   Clear
1:35 AM 42.8 °F 36.6 °F 17.6 °F 36% 29.88 in 10.0 mi South 11.5 mph 16.1 mph N/A   Clear
1:55 AM 42.8 °F 37.5 °F 15.8 °F 34% 29.89 in 10.0 mi SW 9.2 mph - N/A   Clear
2:15 AM 42.8 °F - 15.8 °F 34% 29.89 in 10.0 mi Calm Calm - N/A   Scattered Clouds
2:35 AM 44.6 °F 40.7 °F 15.8 °F 31% 29.88 in 10.0 mi SSW 6.9 mph - N/A   Partly Cloudy
2:55 AM 44.6 °F 41.4 °F 15.8 °F 31% 29.88 in 10.0 mi WSW 5.8 mph - N/A   Clear
3:15 AM 44.6 °F 39.2 °F 15.8 °F 31% 29.86 in 10.0 mi WSW 10.4 mph - N/A   Clear
3:35 AM 44.6 °F 38.8 °F 15.8 °F 31% 29.85 in 10.0 mi WSW 11.5 mph 16.1 mph N/A   Clear
3:55 AM 44.6 °F 39.2 °F 15.8 °F 31% 29.84 in 10.0 mi SSW 10.4 mph 20.7 mph N/A   Clear
4:15 AM 35.6 °F 27.5 °F 17.6 °F 48% 29.83 in 10.0 mi SE 11.5 mph - N/A   Clear
4:35 AM 37.4 °F 30.8 °F 17.6 °F 45% 29.82 in 10.0 mi South 9.2 mph - N/A   Clear
4:55 AM 46.4 °F 40.4 °F 17.6 °F 32% 29.81 in 10.0 mi SSW 13.8 mph 25.3 mph N/A   Clear
5:15 AM 39.2 °F 32.0 °F 15.8 °F 39% 29.80 in 10.0 mi SE 11.5 mph 16.1 mph N/A   Clear
5:35 AM 37.4 °F 28.9 °F 15.8 °F 41% 29.79 in 10.0 mi SE 13.8 mph 20.7 mph N/A   Clear
5:55 AM 37.4 °F 29.8 °F 15.8 °F 41% 29.77 in 10.0 mi SE 11.5 mph - N/A   Clear
6:15 AM 39.2 °F 32.5 °F 15.8 °F 39% 29.77 in 10.0 mi SE 10.4 mph - N/A   Clear
6:35 AM 39.2 °F 33.0 °F 15.8 °F 39% 29.77 in 10.0 mi SE 9.2 mph - N/A   Clear
6:55 AM 39.2 °F 35.0 °F 15.8 °F 39% 29.76 in 10.0 mi SSE 5.8 mph - N/A   Clear
7:15 AM 37.4 °F 32.1 °F 15.8 °F 41% 29.76 in 10.0 mi SSE 6.9 mph - N/A   Clear
7:35 AM 39.2 °F 33.6 °F 15.8 °F 39% 29.76 in 10.0 mi South 8.1 mph - N/A   Clear
7:55 AM 35.6 °F 28.6 °F 15.8 °F 44% 29.76 in 10.0 mi SSE 9.2 mph - N/A   Clear
8:15 AM 46.4 °F 40.4 °F 15.8 °F 29% 29.75 in 10.0 mi WSW 13.8 mph 19.6 mph N/A   Clear
8:35 AM 46.4 °F 41.5 °F 15.8 °F 29% 29.74 in 10.0 mi WSW 10.4 mph 20.7 mph N/A   Clear
9:15 AM 48.2 °F - 15.8 °F 27% 29.74 in 10.0 mi WSW 9.2 mph 18.4 mph N/A   Clear
9:35 AM 50.0 °F - 15.8 °F 26% 29.74 in 10.0 mi West 9.2 mph - N/A   Clear
9:55 AM 48.2 °F - 17.6 °F 30% 29.73 in 10.0 mi SE 5.8 mph - N/A   Clear
10:15 AM 53.6 °F - 17.6 °F 24% 29.72 in 10.0 mi West 6.9 mph - N/A   Clear
10:35 AM 53.6 °F - 15.8 °F 22% 29.72 in 10.0 mi WSW 12.7 mph 19.6 mph N/A   Clear
10:55 AM 53.6 °F - 15.8 °F 22% 29.71 in 10.0 mi WSW 12.7 mph 20.7 mph N/A   Clear
11:15 AM 55.4 °F - 15.8 °F 21% 29.69 in 10.0 mi WSW 16.1 mph 35.7 mph N/A   Clear
11:35 AM 55.4 °F - 14.0 °F 20% 29.68 in 10.0 mi SW 23.0 mph 34.5 mph N/A   Clear
11:55 AM 53.6 °F - 12.2 °F 19% 29.68 in 10.0 mi SW 27.6 mph 32.2 mph N/A   Clear
12:15 PM 55.4 °F - 14.0 °F 20% 29.66 in 10.0 mi SW 28.8 mph 39.1 mph N/A   Clear
12:35 PM 55.4 °F - 14.0 °F 20% 29.65 in 10.0 mi SW 32.2 mph 40.3 mph N/A   Clear
12:55 PM 55.4 °F - 14.0 °F 20% 29.65 in 10.0 mi SW 26.5 mph 36.8 mph N/A   Clear
1:15 PM 55.4 °F - 12.2 °F 18% 29.64 in 10.0 mi SW 19.6 mph 40.3 mph N/A   Clear
1:35 PM 53.6 °F - 12.2 °F 19% 29.64 in 10.0 mi SW 19.6 mph 33.4 mph N/A   Clear
1:55 PM 53.6 °F - 12.2 °F 19% 29.63 in 10.0 mi WSW 15.0 mph 28.8 mph N/A   Clear
2:15 PM 53.6 °F - 12.2 °F 19% 29.64 in 10.0 mi WSW 12.7 mph 24.2 mph N/A   Clear
2:35 PM 53.6 °F - 10.4 °F 18% 29.64 in 10.0 mi WSW 12.7 mph 25.3 mph N/A   Clear
2:55 PM 53.6 °F - 10.4 °F 18% 29.64 in 10.0 mi WSW 11.5 mph 29.9 mph N/A   Clear
3:15 PM 51.8 °F - 10.4 °F 19% 29.64 in 10.0 mi SW 18.4 mph 24.2 mph N/A   Clear
3:35 PM 51.8 °F - 10.4 °F 19% 29.64 in 10.0 mi SW 11.5 mph 19.6 mph N/A   Scattered Clouds
3:55 PM 51.8 °F - 12.2 °F 21% 29.65 in 10.0 mi SW 13.8 mph - N/A   Mostly Cloudy
4:15 PM 51.8 °F - 12.2 °F 21% 29.65 in 10.0 mi SW 11.5 mph 19.6 mph N/A   Overcast
4:35 PM 51.8 °F - 12.2 °F 21% 29.66 in 10.0 mi SW 13.8 mph 19.6 mph N/A   Overcast
4:55 PM 50.0 °F - 12.2 °F 22% 29.67 in 10.0 mi SW 17.3 mph 21.9 mph N/A   Overcast
5:15 PM 50.0 °F - 12.2 °F 22% 29.68 in 10.0 mi SW 15.0 mph 23.0 mph N/A   Overcast
5:35 PM 50.0 °F - 12.2 °F 22% 29.69 in 10.0 mi SW 11.5 mph 16.1 mph N/A   Overcast
5:55 PM 48.2 °F - 15.8 °F 27% 29.69 in 10.0 mi SW 13.8 mph 24.2 mph N/A   Overcast
6:15 PM 48.2 °F - 15.8 °F 27% 29.69 in 10.0 mi WSW 11.5 mph 20.7 mph N/A   Overcast
6:35 PM 48.2 °F - 15.8 °F 27% 29.69 in 10.0 mi SW 9.2 mph - N/A   Overcast
6:55 PM 48.2 °F - 15.8 °F 27% 29.69 in 10.0 mi SSW 19.6 mph 24.2 mph N/A   Overcast
7:15 PM 48.2 °F - 17.6 °F 30% 29.70 in 10.0 mi SW 18.4 mph 24.2 mph N/A   Overcast
7:35 PM 48.2 °F - 15.8 °F 27% 29.70 in 10.0 mi WSW 17.3 mph 26.5 mph N/A   Overcast
7:55 PM 48.2 °F - 15.8 °F 27% 29.70 in 10.0 mi WSW 11.5 mph 26.5 mph N/A   Overcast
8:15 PM 37.4 °F 30.3 °F 19.4 °F 48% 29.72 in 10.0 mi NE 10.4 mph 16.1 mph N/A   Overcast
8:35 PM 33.8 °F 24.8 °F 21.2 °F 60% 29.73 in 10.0 mi NE 12.7 mph 26.5 mph N/A   Overcast
8:55 PM 32.0 °F 21.6 °F 21.2 °F 64% 29.74 in 10.0 mi NNE 15.0 mph 24.2 mph N/A   Overcast
9:15 PM 32.0 °F 20.1 °F 21.2 °F 64% 29.75 in 10.0 mi NNE 19.6 mph 28.8 mph N/A   Overcast
9:35 PM 30.2 °F 18.9 °F 23.0 °F 75% 29.75 in 10.0 mi NNE 16.1 mph 23.0 mph N/A   Overcast
9:55 PM 30.2 °F 18.1 °F 23.0 °F 75% 29.76 in 10.0 mi NNE 18.4 mph 27.6 mph N/A   Overcast
10:15 PM 30.2 °F 17.4 °F 23.0 °F 75% 29.77 in 10.0 mi NNE 20.7 mph 28.8 mph N/A   Overcast
10:35 PM 30.2 °F 17.8 °F 24.8 °F 80% 29.77 in 10.0 mi NNE 19.6 mph 27.6 mph N/A   Overcast
10:55 PM 28.4 °F 15.1 °F 24.8 °F 86% 29.78 in 10.0 mi NNE 20.7 mph 25.3 mph N/A   Overcast
11:15 PM 28.4 °F 17.0 °F 24.8 °F 86% 29.80 in 10.0 mi NNE 15.0 mph 21.9 mph N/A   Overcast
11:35 PM 28.4 °F 14.7 °F 24.8 °F 86% 29.81 in 10.0 mi NNE 21.9 mph 26.5 mph N/A   Overcast
11:55 PM 28.4 °F 15.8 °F 24.8 °F 86% 29.80 in 10.0 mi NNE 18.4 mph 28.8 mph N/A   Overcast